Time;durP1;ratioP1;P1;durP2;ratioP2;P2;SDS_P1;SDS_P2;PMS_P1;PMS_P2;Temp;Humidity;BMP_temperature;BMP_pressure;BME280_temperature;BME280_humidity;BME280_pressure;Samples;Min_cycle;Max_cycle;Signal;HPM_P1;HPM_P2
2022/08/11 00:01:05;;;;;;;3.47;3.00;;;17.30;86.90;;;;;;5030976;28;20503;-68
2022/08/11 00:03:33;;;;;;;4.30;3.63;;;17.30;86.80;;;;;;5030965;28;20444;-67
2022/08/11 00:06:02;;;;;;;5.57;3.67;;;17.30;87.20;;;;;;5031192;28;20846;-68
2022/08/11 00:08:31;;;;;;;7.97;3.20;;;17.20;87.10;;;;;;5031411;28;20485;-66
2022/08/11 00:11:01;;;;;;;5.40;3.33;;;17.20;87.80;;;;;;5031423;28;20455;-67
2022/08/11 00:13:33;;;;;;;4.30;3.33;;;17.10;88.30;;;;;;5031371;28;20451;-67
2022/08/11 00:16:01;;;;;;;5.20;3.47;;;17.00;89.30;;;;;;5030556;28;20475;-67
2022/08/11 00:18:30;;;;;;;3.37;2.97;;;17.00;90.00;;;;;;5030562;28;20441;-67
2022/08/11 00:21:00;;;;;;;3.40;3.10;;;16.90;90.40;;;;;;5030594;28;20457;-67
2022/08/11 00:23:28;;;;;;;4.20;3.17;;;16.90;90.20;;;;;;5030495;28;20464;-67
2022/08/11 00:25:56;;;;;;;6.57;3.20;;;17.00;90.10;;;;;;5030079;28;20484;-66
2022/08/11 00:28:26;;;;;;;3.53;3.13;;;17.00;90.10;;;;;;5030633;28;20518;-67
2022/08/11 00:30:54;;;;;;;3.60;3.30;;;17.00;90.00;;;;;;5030307;28;20433;-67
2022/08/11 00:33:24;;;;;;;3.93;3.53;;;16.90;90.30;;;;;;5030586;28;20453;-68
2022/08/11 00:35:57;;;;;;;3.80;3.50;;;16.90;91.50;;;;;;5029869;28;20448;-67
2022/08/11 00:38:27;;;;;;;4.20;3.40;;;16.80;91.50;;;;;;5030152;28;20552;-66
2022/08/11 00:41:00;;;;;;;3.50;3.20;;;16.80;91.50;;;;;;5030048;28;21040;-67
2022/08/11 00:43:47;;;;;;;4.30;3.83;;;16.80;91.20;;;;;;5030090;28;20449;-66
2022/08/11 00:46:29;;;;;;;3.83;3.40;;;16.80;91.30;;;;;;5029702;28;21002;-67
2022/08/11 00:49:08;;;;;;;4.20;3.80;;;16.90;91.10;;;;;;5030145;28;20484;-67
2022/08/11 00:51:44;;;;;;;4.20;3.57;;;17.00;91.40;;;;;;5030127;28;20458;-67
2022/08/11 00:54:32;;;;;;;3.73;3.10;;;16.90;91.30;;;;;;5030242;28;20463;-67
2022/08/11 00:57:31;;;;;;;3.87;3.47;;;16.80;91.50;;;;;;5029924;28;20871;-67
2022/08/11 01:00:13;;;;;;;4.07;3.67;;;16.80;93.50;;;;;;5030391;28;20817;-67
2022/08/11 01:03:16;;;;;;;4.93;3.43;;;16.80;93.60;;;;;;5030202;28;20449;-67
2022/08/11 01:06:06;;;;;;;7.20;3.90;;;16.70;93.00;;;;;;5030202;28;20535;-67
2022/08/11 01:08:57;;;;;;;3.97;3.23;;;16.60;92.60;;;;;;5030295;28;20453;-67
2022/08/11 01:11:56;;;;;;;4.03;3.50;;;16.60;92.60;;;;;;5013254;28;20484;-67
2022/08/11 01:14:40;;;;;;;4.50;3.70;;;16.60;93.00;;;;;;5029811;28;20452;-67
2022/08/11 01:17:55;;;;;;;5.20;3.40;;;16.60;93.20;;;;;;5029697;28;20551;-67
2022/08/11 01:20:55;;;;;;;4.13;3.73;;;16.40;93.70;;;;;;5029981;28;20444;-67
2022/08/11 01:24:19;;;;;;;4.37;3.30;;;16.30;95.80;;;;;;5029454;28;20532;-67
2022/08/11 01:27:23;;;;;;;4.03;3.20;;;16.30;94.70;;;;;;4958137;28;20475;-67
2022/08/11 01:30:20;;;;;;;5.60;3.90;;;16.10;95.30;;;;;;5016317;28;20491;-68
2022/08/11 01:33:24;;;;;;;5.23;3.80;;;16.10;96.10;;;;;;5029868;28;20451;-68
2022/08/11 01:36:44;;;;;;;5.50;3.37;;;16.10;96.10;;;;;;5029333;28;20447;-67
2022/08/11 01:39:33;;;;;;;4.53;3.93;;;16.00;96.60;;;;;;5009249;28;20456;-68
2022/08/11 01:45:16;;;;;;;7.77;4.60;;;16.00;97.70;;;;;;5028857;28;20886;-67
2022/08/11 01:47:55;;;;;;;3.53;3.23;;;16.00;97.60;;;;;;5028514;28;20475;-67
2022/08/11 01:50:36;;;;;;;5.20;3.53;;;16.00;98.80;;;;;;5029218;28;20477;-67
2022/08/11 01:53:21;;;;;;;11.07;3.43;;;15.90;98.50;;;;;;5030554;28;20445;-67
2022/08/11 01:55:57;;;;;;;5.43;3.50;;;15.90;98.20;;;;;;5032681;28;20499;-67
2022/08/11 01:58:33;;;;;;;4.90;3.80;;;15.60;99.20;;;;;;5033903;28;20964;-67
2022/08/11 02:01:10;;;;;;;4.33;3.93;;;15.60;99.60;;;;;;5033572;28;20447;-67
2022/08/11 02:03:59;;;;;;;4.70;3.67;;;15.60;99.90;;;;;;5033184;28;20846;-67
2022/08/11 02:06:55;;;;;;;4.53;3.70;;;15.60;99.90;;;;;;5032803;28;20468;-67
2022/08/11 02:09:43;;;;;;;6.30;3.93;;;15.60;99.90;;;;;;5033112;28;20925;-67
2022/08/11 02:12:20;;;;;;;4.07;3.67;;;15.60;99.90;;;;;;5032969;28;20472;-67
2022/08/11 02:15:02;;;;;;;4.87;4.33;;;15.60;99.90;;;;;;5032847;28;20452;-68
2022/08/11 02:17:47;;;;;;;4.03;3.50;;;15.70;99.90;;;;;;5032795;28;20470;-67
2022/08/11 02:23:39;;;;;;;6.33;4.80;;;15.80;99.90;;;;;;5032733;28;20825;-67
2022/08/11 02:26:11;;;;;;;4.40;4.00;;;16.00;99.60;;;;;;5032152;28;20490;-67
2022/08/11 02:28:50;;;;;;;5.57;3.97;;;16.10;98.60;;;;;;5032444;28;20452;-67
2022/08/11 02:34:19;;;;;;;10.33;4.73;;;16.00;99.90;;;;;;5032338;28;20425;-67
2022/08/11 02:36:55;;;;;;;6.30;4.53;;;15.90;99.50;;;;;;5032219;28;20471;-67
2022/08/11 02:39:26;;;;;;;8.00;4.77;;;15.90;99.40;;;;;;5032550;28;20441;-67
2022/08/11 02:42:23;;;;;;;8.80;4.30;;;16.00;98.90;;;;;;5032455;28;20449;-67
2022/08/11 02:45:04;;;;;;;6.23;4.87;;;16.00;99.90;;;;;;5032101;28;20459;-67
2022/08/11 02:47:39;;;;;;;4.93;4.43;;;15.90;99.90;;;;;;5032075;28;20560;-67
2022/08/11 02:50:18;;;;;;;5.60;4.57;;;15.80;99.90;;;;;;5032431;28;20567;-67
2022/08/11 02:52:58;;;;;;;6.10;4.63;;;15.70;99.90;;;;;;5032116;28;20444;-67
2022/08/11 02:55:32;;;;;;;6.20;5.10;;;15.60;99.90;;;;;;5032025;28;20509;-67
2022/08/11 02:58:11;;;;;;;5.33;4.50;;;15.50;99.90;;;;;;5031776;28;20455;-67
2022/08/11 03:00:49;;;;;;;5.40;4.53;;;15.50;99.90;;;;;;5032103;28;20445;-67
2022/08/11 03:03:23;;;;;;;5.83;5.23;;;15.40;99.90;;;;;;5031886;28;20441;-68
2022/08/11 03:06:02;;;;;;;5.10;4.60;;;15.20;99.90;;;;;;5030728;28;20817;-67
2022/08/11 03:08:51;;;;;;;5.23;4.13;;;15.10;99.90;;;;;;5031823;28;20452;-67
2022/08/11 03:17:21;;;;;;;4.60;4.20;;;15.10;99.90;;;;;;5032044;28;20436;-67
2022/08/11 03:19:59;;;;;;;4.90;4.40;;;15.00;99.90;;;;;;5031954;28;20444;-68
2022/08/11 03:22:32;;;;;;;6.03;4.90;;;14.90;99.90;;;;;;5032094;28;20440;-67
2022/08/11 03:25:03;;;;;;;7.43;4.47;;;14.90;99.90;;;;;;5031430;28;20448;-68
2022/08/11 03:27:43;;;;;;;7.00;4.13;;;14.90;99.90;;;;;;5031872;28;20479;-68
2022/08/11 03:30:16;;;;;;;4.97;4.47;;;14.90;99.90;;;;;;5031881;28;20491;-69
2022/08/11 03:35:41;;;;;;;6.30;4.47;;;14.90;99.90;;;;;;5029871;28;20433;-68
2022/08/11 03:38:12;;;;;;;6.30;4.97;;;14.80;99.90;;;;;;5031575;28;20440;-68
2022/08/11 03:43:53;;;;;;;6.23;4.87;;;14.70;99.90;;;;;;5031317;28;20429;-67
2022/08/11 03:46:29;;;;;;;5.33;4.83;;;14.70;99.90;;;;;;5031030;28;20500;-67
2022/08/11 03:49:07;;;;;;;6.00;5.07;;;14.60;99.90;;;;;;5031116;28;20453;-68
2022/08/11 03:51:45;;;;;;;5.63;4.83;;;14.50;99.90;;;;;;5031082;28;20437;-66
2022/08/11 03:54:20;;;;;;;5.70;5.10;;;14.50;99.90;;;;;;5030673;28;20444;-67
2022/08/11 03:57:19;;;;;;;5.73;4.47;;;14.50;99.90;;;;;;5030879;28;20468;-67
2022/08/11 04:00:21;;;;;;;6.50;4.23;;;14.40;99.90;;;;;;5030982;28;20452;-67
2022/08/11 04:03:17;;;;;;;5.27;4.77;;;14.40;99.90;;;;;;5030667;28;20437;-67
2022/08/11 04:06:14;;;;;;;7.30;4.90;;;14.40;99.90;;;;;;5030744;28;21080;-68
2022/08/11 04:09:15;;;;;;;6.43;4.87;;;14.30;99.90;;;;;;5030702;28;20456;-67
2022/08/11 04:12:23;;;;;;;4.73;4.23;;;14.30;99.90;;;;;;5030764;28;20523;-67
2022/08/11 04:18:55;;;;;;;4.97;4.57;;;14.30;99.90;;;;;;5030738;28;20475;-67
2022/08/11 04:22:06;;;;;;;5.90;4.90;;;14.30;99.90;;;;;;5030468;28;20519;-67
2022/08/11 04:25:10;;;;;;;5.03;4.53;;;14.30;99.90;;;;;;5030776;28;20472;-67
2022/08/11 04:28:20;;;;;;;8.30;4.73;;;14.30;99.90;;;;;;5030207;28;21024;-66
2022/08/11 04:31:04;;;;;;;5.20;4.40;;;14.30;99.90;;;;;;5030655;28;20477;-67
2022/08/11 04:34:06;;;;;;;6.30;4.43;;;14.40;99.90;;;;;;5030544;28;20536;-67
2022/08/11 04:40:12;;;;;;;5.23;4.73;;;14.50;99.90;;;;;;5030365;28;20417;-67
2022/08/11 04:43:28;;;;;;;5.50;4.30;;;14.50;99.90;;;;;;5030688;28;20890;-67
2022/08/11 04:46:16;;;;;;;5.57;4.60;;;14.50;99.90;;;;;;5029840;28;20464;-67
2022/08/11 05:02:17;;;;;;;5.17;4.57;;;14.70;99.90;;;;;;5030378;28;20985;-68
2022/08/11 05:08:33;;;;;;;5.97;4.83;;;14.80;99.90;;;;;;5030946;28;20436;-68
2022/08/11 05:11:46;;;;;;;6.13;4.77;;;14.90;99.90;;;;;;4983008;28;20492;-68
2022/08/11 05:37:19;;;;;;;6.33;5.63;;;15.60;99.90;;;;;;5033615;28;20528;-69
2022/08/11 05:56:44;;;;;;;6.00;5.00;;;16.20;99.90;;;;;;5032959;28;20435;-66
2022/08/11 05:59:18;;;;;;;5.80;4.63;;;16.30;99.90;;;;;;5033174;28;20444;-67
2022/08/11 06:01:47;;;;;;;4.77;4.30;;;16.40;99.90;;;;;;5033072;28;20448;-67
2022/08/11 06:04:21;;;;;;;5.57;5.00;;;16.50;99.90;;;;;;5033201;28;20457;-67
2022/08/11 06:06:54;;;;;;;7.70;5.20;;;16.60;99.90;;;;;;5032890;28;20461;-68
2022/08/11 06:09:27;;;;;;;7.57;5.50;;;16.80;99.90;;;;;;5033038;28;20447;-68
2022/08/11 06:11:58;;;;;;;5.73;5.10;;;17.00;99.90;;;;;;5033184;28;20440;-67
2022/08/11 06:14:26;;;;;;;8.17;5.13;;;17.20;99.90;;;;;;5032858;28;20531;-65
2022/08/11 06:16:59;;;;;;;5.30;4.80;;;17.40;99.90;;;;;;5032843;28;20472;-66
2022/08/11 06:19:34;;;;;;;5.50;4.43;;;17.50;99.90;;;;;;5032972;28;20457;-66
2022/08/11 06:22:02;;;;;;;8.23;6.40;;;17.60;99.90;;;;;;5032767;28;20454;-67
2022/08/11 06:24:31;;;;;;;5.53;4.67;;;17.70;99.90;;;;;;5032680;28;20479;-67
2022/08/11 06:26:59;;;;;;;5.20;4.70;;;17.80;99.90;;;;;;5032537;28;20579;-67
2022/08/11 06:29:27;;;;;;;5.77;4.70;;;17.90;99.90;;;;;;5032513;28;20448;-68
2022/08/11 06:31:58;;;;;;;5.03;4.53;;;17.90;99.90;;;;;;5032577;28;20520;-68
2022/08/11 06:34:58;;;;;;;5.33;4.10;;;17.90;99.90;;;;;;5032330;28;20536;-66
2022/08/11 06:37:47;;;;;;;4.90;4.50;;;18.00;99.90;;;;;;5016001;28;20538;-67
2022/08/11 06:40:27;;;;;;;8.70;4.40;;;18.20;99.90;;;;;;5032200;28;20469;-67
2022/08/11 06:43:01;;;;;;;5.50;4.97;;;18.30;99.90;;;;;;5032323;28;21263;-67
2022/08/11 06:45:34;;;;;;;6.20;4.60;;;18.40;99.90;;;;;;5032222;28;20440;-67
2022/08/11 06:48:05;;;;;;;7.17;5.47;;;18.50;99.90;;;;;;5032386;28;20448;-67
2022/08/11 06:53:20;;;;;;;4.60;4.13;;;18.80;99.90;;;;;;5032334;28;20424;-68
2022/08/11 07:01:33;;;;;;;6.67;4.97;;;19.20;99.90;;;;;;5032189;28;20968;-68
2022/08/11 07:04:07;;;;;;;7.83;5.17;;;19.30;99.40;;;;;;5032293;28;20524;-67
2022/08/11 07:06:43;;;;;;;6.73;4.63;;;19.50;98.70;;;;;;5032100;28;20473;-67
2022/08/11 07:15:43;;;;;;;5.50;4.97;;;20.10;97.70;;;;;;5031522;28;20416;-67
2022/08/11 07:29:51;;;;;;;6.20;4.30;;;20.80;95.30;;;;;;5031819;28;20452;-66
2022/08/11 07:32:25;;;;;;;5.10;4.60;;;20.90;95.30;;;;;;5031765;28;21010;-67
2022/08/11 07:34:59;;;;;;;6.27;4.60;;;21.30;94.10;;;;;;5031496;28;20452;-67
2022/08/11 07:37:32;;;;;;;5.57;4.53;;;21.40;93.80;;;;;;5031930;28;20845;-66
2022/08/11 07:40:00;;;;;;;4.43;4.03;;;21.60;93.30;;;;;;5031840;28;20456;-67
2022/08/11 07:42:35;;;;;;;6.10;4.17;;;21.70;93.00;;;;;;5031614;28;20451;-67
2022/08/11 07:53:22;;;;;;;5.70;4.70;;;22.30;91.20;;;;;;5031307;28;20811;-68
2022/08/11 07:55:49;;;;;;;4.50;3.77;;;22.40;90.20;;;;;;5030637;28;21244;-67
2022/08/11 08:17:48;;;;;;;4.57;4.17;;;23.20;88.70;;;;;;5030654;28;20880;-68
2022/08/11 08:20:18;;;;;;;8.23;4.40;;;23.40;87.80;;;;;;5030689;28;20483;-68
2022/08/11 08:22:46;;;;;;;7.60;4.00;;;23.60;86.30;;;;;;5030495;28;20461;-67
2022/08/11 08:25:16;;;;;;;5.60;4.20;;;23.80;85.20;;;;;;5030553;28;20860;-67
2022/08/11 08:27:44;;;;;;;7.60;3.87;;;23.90;83.80;;;;;;5030353;28;20480;-67
2022/08/11 08:32:59;;;;;;;5.60;3.43;;;24.40;79.70;;;;;;5030447;28;20571;-68
2022/08/11 08:35:29;;;;;;;4.70;4.00;;;24.70;81.20;;;;;;5030051;28;20503;-68
2022/08/11 08:37:56;;;;;;;4.00;3.53;;;24.80;76.80;;;;;;5030465;28;20469;-67
2022/08/11 08:40:24;;;;;;;4.23;3.40;;;25.00;76.60;;;;;;5030350;28;21148;-67
2022/08/11 08:42:55;;;;;;;3.77;3.37;;;25.20;75.30;;;;;;5030254;28;20838;-68
2022/08/11 08:45:24;;;;;;;5.13;3.30;;;25.40;74.20;;;;;;5029951;28;20445;-67
2022/08/11 08:47:58;;;;;;;5.00;3.20;;;25.50;72.50;;;;;;5029985;28;20472;-68
2022/08/11 08:53:12;;;;;;;3.37;2.87;;;25.70;69.50;;;;;;5028972;28;20432;-68
2022/08/11 08:55:41;;;;;;;4.20;3.10;;;25.80;71.00;;;;;;5029681;28;20444;-67
2022/08/11 08:58:09;;;;;;;4.60;3.30;;;25.90;68.60;;;;;;5029937;28;20953;-68
2022/08/11 09:00:40;;;;;;;5.27;3.30;;;26.10;66.70;;;;;;5030176;28;20445;-67
2022/08/11 09:03:07;;;;;;;6.10;3.50;;;26.20;67.20;;;;;;5030084;28;20445;-68
2022/08/11 09:05:34;;;;;;;5.27;3.63;;;26.20;64.70;;;;;;5029615;28;20789;-68
2022/08/11 09:08:02;;;;;;;6.57;3.00;;;26.10;65.10;;;;;;5029931;28;20440;-67
2022/08/11 09:10:30;;;;;;;7.07;3.57;;;26.20;67.30;;;;;;5029757;28;20481;-68
2022/08/11 09:12:59;;;;;;;3.90;3.20;;;26.30;65.80;;;;;;5029891;28;20538;-67
2022/08/11 09:15:27;;;;;;;3.40;2.83;;;26.50;63.90;;;;;;5029722;28;20449;-66
2022/08/11 09:18:02;;;;;;;4.20;3.03;;;26.50;64.60;;;;;;5029892;28;20491;-67
2022/08/11 09:20:33;;;;;;;3.30;3.00;;;26.60;64.00;;;;;;5029924;28;20455;-67
2022/08/11 09:28:50;;;;;;;4.60;3.17;;;26.80;60.30;;;;;;4988058;28;20450;-68
2022/08/11 09:31:18;;;;;;;3.30;2.70;;;27.00;61.40;;;;;;5011653;28;20473;-67
2022/08/11 09:33:45;;;;;;;4.50;2.80;;;27.20;59.10;;;;;;5029552;28;20449;-67
2022/08/11 09:41:55;;;;;;;3.47;2.60;;;27.50;59.30;;;;;;4991347;28;20435;-68
2022/08/11 09:47:13;;;;;;;4.03;3.00;;;28.00;56.80;;;;;;5029832;28;20444;-67
2022/08/11 09:49:42;;;;;;;5.90;2.97;;;28.60;56.20;;;;;;5029612;28;20927;-68
2022/08/11 09:52:10;;;;;;;3.80;2.77;;;29.40;55.20;;;;;;5029485;28;21098;-68
2022/08/11 09:54:37;;;;;;;5.43;2.90;;;29.80;53.00;;;;;;5029060;28;20441;-68
2022/08/11 09:59:52;;;;;;;6.17;2.97;;;31.30;52.30;;;;;;5029771;28;21140;-69
2022/08/11 10:02:25;;;;;;;3.40;2.33;;;31.60;50.50;;;;;;5029459;28;20501;-69
2022/08/11 10:07:00;;;;;;;2.57;2.10;;;31.90;49.20;;;;;;5028927;28;20449;-67
2022/08/11 10:07:47;;;;;;;4.10;2.13;;;31.90;48.40;;;;;;5029210;28;20584;-68
2022/08/11 10:10:14;;;;;;;2.50;2.23;;;32.00;47.30;;;;;;5029364;28;20473;-67
2022/08/11 10:12:47;;;;;;;4.07;2.40;;;32.10;47.80;;;;;;5029147;28;20484;-68
2022/08/11 10:15:33;;;;;;;4.40;2.57;;;32.30;48.10;;;;;;5032260;28;20448;-67
2022/08/11 10:20:51;;;;;;;9.80;2.90;;;32.30;48.20;;;;;;5033077;28;20544;-68
2022/08/11 10:28:50;;;;;;;2.60;2.30;;;32.80;45.80;;;;;;5032738;28;20417;-67
2022/08/11 10:34:05;;;;;;;4.23;2.40;;;32.70;44.70;;;;;;5032635;28;20816;-67
2022/08/11 10:36:37;;;;;;;3.50;1.90;;;32.30;44.00;;;;;;5032463;28;20473;-67
2022/08/11 10:39:06;;;;;;;2.83;2.17;;;32.40;45.40;;;;;;5032741;28;20502;-67
2022/08/11 10:44:22;;;;;;;3.93;2.20;;;32.40;44.60;;;;;;5014762;28;20998;-66
2022/08/11 10:49:37;;;;;;;2.40;1.90;;;32.90;45.20;;;;;;5032354;28;20431;-67
2022/08/11 11:00:18;;;;;;;3.20;2.10;;;33.30;43.70;;;;;;5032334;28;20463;-67
2022/08/11 11:02:47;;;;;;;2.77;2.47;;;33.50;43.60;;;;;;5032204;28;20445;-67
2022/08/11 11:05:23;;;;;;;4.73;2.17;;;33.50;42.80;;;;;;5031720;28;20510;-68
2022/08/11 11:07:56;;;;;;;3.10;2.40;;;33.80;43.10;;;;;;5032138;28;20526;-68
2022/08/11 11:10:23;;;;;;;4.10;2.33;;;34.10;41.50;;;;;;5032156;28;20451;-66
2022/08/11 11:18:34;;;;;;;5.23;2.27;;;34.20;42.00;;;;;;5031950;28;20428;-68
2022/08/11 11:21:06;;;;;;;3.93;1.97;;;33.70;42.00;;;;;;5032236;28;20453;-68
2022/08/11 11:23:40;;;;;;;3.30;2.50;;;33.20;40.30;;;;;;5031774;28;20441;-68
2022/08/11 11:26:39;;;;;;;4.03;2.23;;;33.00;43.10;;;;;;5030118;28;20481;-67
2022/08/11 11:29:46;;;;;;;4.70;2.43;;;33.20;42.60;;;;;;5028632;28;20540;-68
2022/08/11 11:32:21;;;;;;;3.10;2.30;;;33.90;41.00;;;;;;5031645;28;20483;-69
2022/08/11 11:35:26;;;;;;;4.40;2.33;;;34.20;41.20;;;;;;5031868;28;20449;-67
2022/08/11 11:37:54;;;;;;;3.17;2.20;;;33.90;39.50;;;;;;5031571;28;21043;-68
2022/08/11 11:40:23;;;;;;;3.90;2.77;;;34.10;39.40;;;;;;5031580;28;20832;-67
2022/08/11 11:42:52;;;;;;;3.57;2.60;;;34.00;40.70;;;;;;5031422;28;20437;-67
2022/08/11 11:45:21;;;;;;;3.53;2.30;;;34.10;40.90;;;;;;5031331;28;20445;-68
2022/08/11 11:47:51;;;;;;;3.10;2.57;;;34.50;39.90;;;;;;5031229;28;20469;-67
2022/08/11 11:50:23;;;;;;;2.90;2.23;;;34.40;40.00;;;;;;5031647;28;20491;-66
2022/08/11 11:52:54;;;;;;;3.73;2.23;;;34.20;39.80;;;;;;5031679;28;20476;-67
2022/08/11 11:55:22;;;;;;;3.60;2.37;;;34.20;39.20;;;;;;5031255;28;20531;-67
2022/08/11 12:03:21;;;;;;;5.53;2.27;;;32.40;40.10;;;;;;5031167;28;20804;-68
2022/08/11 12:05:52;;;;;;;3.20;2.23;;;32.60;40.80;;;;;;5030662;28;20453;-68
2022/08/11 12:08:23;;;;;;;3.37;2.77;;;32.90;39.90;;;;;;5030998;28;20451;-68
2022/08/11 12:13:39;;;;;;;2.63;2.30;;;33.60;41.90;;;;;;5030935;28;20955;-68
2022/08/11 12:13:42;;;;;;;4.80;2.37;;;34.30;40.90;;;;;;5030705;28;20457;-67
2022/08/11 12:16:10;;;;;;;3.00;2.10;;;35.10;39.50;;;;;;5030681;28;20539;-68
2022/08/11 12:18:38;;;;;;;3.00;1.97;;;35.40;38.10;;;;;;5031484;28;20457;-68
2022/08/11 12:21:07;;;;;;;3.10;1.90;;;35.00;36.80;;;;;;5030994;28;20453;-68
2022/08/11 12:29:09;;;;;;;3.57;2.27;;;32.40;40.00;;;;;;5030610;28;20798;-66
2022/08/11 12:31:38;;;;;;;3.33;2.13;;;33.10;41.30;;;;;;5030453;28;20572;-68
2022/08/11 12:34:07;;;;;;;4.00;2.27;;;34.00;40.50;;;;;;5030496;28;20458;-68
2022/08/11 12:36:37;;;;;;;4.00;1.90;;;34.70;39.90;;;;;;5029721;28;20477;-68
2022/08/11 12:39:09;;;;;;;3.67;2.00;;;35.70;39.20;;;;;;5030266;28;21225;-68
2022/08/11 12:47:10;;;;;;;2.80;2.13;;;36.10;36.00;;;;;;5030376;28;20472;-68
2022/08/11 12:52:35;;;;;;;2.20;1.90;;;36.80;33.60;;;;;;5030320;28;20527;-68
2022/08/11 12:55:09;;;;;;;5.07;2.40;;;37.00;35.70;;;;;;5029850;28;20947;-68
2022/08/11 13:05:57;;;;;;;2.90;2.10;;;37.20;33.50;;;;;;5029738;28;20613;-68
2022/08/11 13:08:28;;;;;;;2.80;2.07;;;37.50;31.80;;;;;;5029925;28;21172;-68
2022/08/11 13:13:46;;;;;;;3.47;2.03;;;37.40;34.10;;;;;;5029971;28;20432;-68
2022/08/11 13:16:14;;;;;;;2.70;1.73;;;37.90;33.40;;;;;;5029426;28;20469;-67
2022/08/11 13:18:42;;;;;;;4.50;1.73;;;38.00;30.50;;;;;;5029693;28;20441;-68
2022/08/11 13:21:10;;;;;;;2.90;2.00;;;38.30;32.10;;;;;;5030186;28;20451;-68
2022/08/11 13:23:39;;;;;;;2.77;2.30;;;38.70;34.00;;;;;;5029883;28;20440;-68
2022/08/11 13:26:08;;;;;;;3.23;2.30;;;39.10;32.00;;;;;;5029377;28;20476;-68
2022/08/11 13:28:36;;;;;;;3.83;2.10;;;39.40;31.50;;;;;;5029683;28;20440;-67
2022/08/11 13:31:14;;;;;;;3.57;2.10;;;39.10;29.60;;;;;;5029564;28;20502;-68
2022/08/11 13:33:43;;;;;;;3.43;2.40;;;39.40;29.80;;;;;;5029888;28;20530;-68
2022/08/11 13:36:10;;;;;;;3.10;2.10;;;39.40;31.80;;;;;;5029308;28;20490;-68
2022/08/11 13:38:40;;;;;;;4.33;1.97;;;39.80;31.10;;;;;;5029572;28;21081;-68
2022/08/11 13:43:51;;;;;;;2.67;1.60;;;40.40;29.20;;;;;;5028482;28;20935;-68
2022/08/11 13:46:19;;;;;;;3.43;1.90;;;40.00;28.90;;;;;;5029054;28;20476;-68
2022/08/11 13:48:46;;;;;;;3.50;1.80;;;39.20;28.90;;;;;;5030811;28;20452;-68
2022/08/11 13:51:33;;;;;;;2.50;1.93;;;38.10;29.50;;;;;;5033520;28;20456;-68
2022/08/11 13:54:02;;;;;;;4.93;2.00;;;38.20;30.10;;;;;;5033506;28;20547;-67
2022/08/11 13:56:31;;;;;;;3.40;1.77;;;38.80;30.10;;;;;;5033322;28;20475;-68
2022/08/11 13:59:01;;;;;;;3.80;2.17;;;39.30;29.40;;;;;;5033591;28;20830;-67
2022/08/11 14:01:30;;;;;;;3.13;1.87;;;38.30;29.60;;;;;;5033288;28;20448;-68
2022/08/11 14:04:03;;;;;;;3.27;1.90;;;38.30;30.00;;;;;;5033542;28;20452;-68
2022/08/11 14:06:30;;;;;;;4.30;2.03;;;38.10;30.20;;;;;;5033114;28;20464;-68
2022/08/11 14:08:59;;;;;;;5.50;2.20;;;37.70;29.00;;;;;;5033757;28;20821;-68
2022/08/11 14:14:19;;;;;;;3.10;1.90;;;38.00;31.20;;;;;;5033164;28;20436;-67
2022/08/11 14:16:48;;;;;;;2.67;1.97;;;38.90;30.10;;;;;;5032765;28;20538;-67
2022/08/11 14:19:17;;;;;;;2.10;1.57;;;39.00;30.30;;;;;;5032963;28;20814;-68
2022/08/11 14:24:31;;;;;;;4.90;2.07;;;39.00;29.30;;;;;;5032751;28;20423;-68
2022/08/11 14:26:59;;;;;;;2.60;1.80;;;39.10;29.50;;;;;;5032562;28;20476;-68
2022/08/11 14:29:31;;;;;;;4.47;1.87;;;39.60;28.80;;;;;;5032537;28;20459;-68
2022/08/11 14:32:01;;;;;;;3.80;2.17;;;39.90;28.90;;;;;;5032620;28;20480;-67
2022/08/11 14:34:29;;;;;;;3.60;1.73;;;39.40;29.00;;;;;;5032569;28;20798;-68
2022/08/11 14:36:59;;;;;;;3.13;2.00;;;39.60;28.60;;;;;;5032568;28;20483;-68
2022/08/11 14:39:28;;;;;;;3.63;1.90;;;40.10;29.10;;;;;;5032684;28;20472;-68
2022/08/11 14:47:33;;;;;;;3.33;1.80;;;40.00;29.10;;;;;;5032467;28;20526;-68
2022/08/11 14:50:02;;;;;;;3.40;1.67;;;39.90;28.50;;;;;;5032387;28;20460;-68
2022/08/11 14:52:33;;;;;;;2.53;1.50;;;39.80;29.00;;;;;;5032160;28;20570;-67
2022/08/11 14:57:46;;;;;;;2.20;1.80;;;39.40;28.80;;;;;;5032197;28;20817;-67
2022/08/11 15:00:17;;;;;;;2.00;1.70;;;39.40;27.40;;;;;;5032044;28;20445;-68
2022/08/11 15:05:31;;;;;;;2.57;1.80;;;38.90;27.90;;;;;;5032021;28;20435;-68
2022/08/11 15:07:59;;;;;;;3.03;1.70;;;39.30;29.60;;;;;;5032097;28;20469;-67
2022/08/11 15:10:26;;;;;;;3.33;2.07;;;39.20;28.60;;;;;;5032060;28;20449;-68
2022/08/11 15:12:54;;;;;;;2.90;1.90;;;39.30;28.50;;;;;;5031840;28;20492;-68
2022/08/11 15:18:11;;;;;;;2.50;1.60;;;39.40;28.30;;;;;;5031826;28;20420;-68
2022/08/11 15:26:11;;;;;;;4.10;1.90;;;39.30;29.00;;;;;;5031304;28;20460;-68
2022/08/11 15:37:26;;;;;;;2.63;1.73;;;38.40;29.90;;;;;;5031573;28;20490;-68
2022/08/11 15:45:49;;;;;;;3.20;2.20;;;38.50;29.10;;;;;;5031068;28;20508;-68
2022/08/11 15:48:28;;;;;;;2.80;1.90;;;37.60;30.00;;;;;;5031332;28;20444;-68
2022/08/11 15:50:58;;;;;;;3.53;1.93;;;38.00;29.60;;;;;;5031188;28;20450;-68
2022/08/11 15:53:31;;;;;;;2.93;1.70;;;37.60;28.60;;;;;;5031363;28;20873;-68
2022/08/11 15:55:59;;;;;;;2.73;1.73;;;37.50;30.30;;;;;;5030957;28;20456;-69
2022/08/11 16:04:12;;;;;;;3.00;2.40;;;37.90;29.80;;;;;;5031095;28;20610;-68
2022/08/11 16:06:44;;;;;;;2.80;1.67;;;37.60;30.20;;;;;;5030749;28;21099;-68
2022/08/11 16:09:13;;;;;;;3.07;1.70;;;37.30;30.20;;;;;;5030980;28;20528;-68
2022/08/11 16:11:41;;;;;;;2.60;1.80;;;36.20;29.70;;;;;;5030290;28;20467;-68
2022/08/11 16:16:56;;;;;;;8.03;2.50;;;35.40;31.80;;;;;;5030826;28;20464;-68
2022/08/11 16:19:27;;;;;;;4.33;2.30;;;34.70;31.70;;;;;;5030990;28;20449;-68
2022/08/11 16:21:55;;;;;;;4.53;2.70;;;34.80;32.60;;;;;;5030906;28;20456;-68
2022/08/11 16:24:24;;;;;;;5.20;1.90;;;34.70;32.80;;;;;;5030994;28;20449;-68
2022/08/11 16:26:54;;;;;;;3.23;2.43;;;34.20;31.40;;;;;;5032269;28;20480;-68
2022/08/11 16:29:24;;;;;;;3.67;2.90;;;33.80;33.20;;;;;;5030844;28;20456;-68
2022/08/11 16:40:10;;;;;;;2.73;2.07;;;34.00;32.90;;;;;;5030449;28;21220;-67
2022/08/11 16:48:08;;;;;;;3.70;2.10;;;33.90;33.90;;;;;;5030286;28;20412;-68
2022/08/11 16:50:38;;;;;;;3.50;2.27;;;33.80;33.30;;;;;;5030273;28;20456;-67
2022/08/11 16:53:05;;;;;;;3.60;2.80;;;33.30;33.50;;;;;;5029925;28;20488;-67
2022/08/11 16:55:33;;;;;;;8.00;2.23;;;33.00;33.90;;;;;;5029627;28;20911;-68
2022/08/11 17:00:47;;;;;;;4.10;2.33;;;32.20;36.00;;;;;;5030036;28;20507;-68
2022/08/11 17:14:31;;;;;;;2.90;2.07;;;31.20;37.70;;;;;;5029465;28;20522;-68
2022/08/11 17:17:00;;;;;;;3.60;2.40;;;31.10;37.90;;;;;;5029404;28;21181;-66
2022/08/11 17:19:31;;;;;;;3.90;2.00;;;31.00;37.70;;;;;;5029509;28;20445;-68
2022/08/11 17:24:50;;;;;;;4.57;2.77;;;30.30;39.50;;;;;;5028370;28;20518;-67
2022/08/11 17:27:19;;;;;;;2.70;2.07;;;29.80;38.20;;;;;;5029316;28;20477;-66
2022/08/11 17:29:50;;;;;;;4.63;2.27;;;29.60;40.90;;;;;;5029405;28;20507;-67
2022/08/11 17:37:58;;;;;;;2.57;1.97;;;28.70;41.20;;;;;;5029217;28;20532;-66
2022/08/11 17:40:26;;;;;;;4.10;2.80;;;28.40;41.80;;;;;;5029264;28;20463;-67
2022/08/11 17:48:26;;;;;;;3.13;2.57;;;27.80;42.00;;;;;;5029365;28;20965;-66
2022/08/11 17:50:57;;;;;;;4.67;2.67;;;27.60;42.70;;;;;;5029262;28;20449;-67
2022/08/11 18:01:43;;;;;;;3.17;2.20;;;27.00;43.90;;;;;;5028998;28;20950;-67
2022/08/11 18:04:11;;;;;;;3.33;2.37;;;26.80;44.00;;;;;;5028911;28;21007;-68
2022/08/11 18:06:39;;;;;;;5.33;2.43;;;26.60;45.10;;;;;;5028907;28;20457;-67
